createdAt,value
2022-12-18T00:00:24.426Z,12.45
2022-12-18T00:02:54.092Z,14.38
2022-12-18T00:05:23.681Z,13.63
2022-12-18T00:07:55.093Z,13.98
2022-12-18T00:10:25.828Z,14.15
2022-12-18T00:12:53.124Z,15.57
2022-12-18T00:15:20.910Z,14.95
2022-12-18T00:17:50.247Z,13.55
2022-12-18T00:20:26.461Z,14.63
2022-12-18T00:22:54.504Z,15.05
2022-12-18T00:25:22.096Z,13.40
2022-12-18T00:27:51.513Z,13.52
2022-12-18T00:30:19.367Z,11.73
2022-12-18T00:32:46.799Z,13.63
2022-12-18T00:35:14.025Z,13.57
2022-12-18T00:37:41.715Z,11.38
2022-12-18T00:40:09.625Z,14.07
2022-12-18T00:42:56.555Z,16.27
2022-12-18T00:45:30.930Z,13.82
2022-12-18T00:48:00.484Z,12.93
2022-12-18T00:50:27.813Z,11.95
2022-12-18T00:52:57.247Z,14.70
2022-12-18T00:55:24.579Z,13.13
2022-12-18T00:57:53.336Z,13.77
2022-12-18T01:00:25.290Z,13.27
2022-12-18T01:02:52.628Z,15.20
2022-12-18T01:05:19.977Z,12.75
2022-12-18T01:07:47.143Z,13.32
2022-12-18T01:10:14.943Z,14.18
2022-12-18T01:12:42.271Z,13.93
2022-12-18T01:15:17.943Z,13.15
2022-12-18T01:17:45.164Z,11.98
2022-12-18T01:20:13.721Z,14.30
2022-12-18T01:22:43.393Z,11.98
2022-12-18T01:25:10.763Z,14.48
2022-12-18T01:27:40.259Z,11.38
2022-12-18T01:30:08.274Z,12.25
2022-12-18T01:32:36.728Z,11.05
2022-12-18T01:35:07.288Z,12.07
2022-12-18T01:37:34.630Z,11.60
2022-12-18T01:40:01.945Z,11.40
2022-12-18T01:42:31.876Z,12.35
2022-12-18T01:45:07.534Z,12.45
2022-12-18T01:47:50.016Z,13.48
2022-12-18T01:50:44.961Z,11.20
2022-12-18T01:55:49.314Z,12.27
2022-12-18T01:58:17.289Z,11.77
2022-12-18T02:00:44.567Z,12.70
2022-12-18T02:03:12.854Z,11.60
2022-12-18T02:05:58.394Z,14.38
2022-12-18T02:08:39.615Z,12.25
2022-12-18T02:11:16.453Z,13.50
2022-12-18T02:14:11.226Z,12.13
2022-12-18T02:16:50.685Z,11.52
2022-12-18T02:19:23.337Z,12.18
2022-12-18T02:22:17.939Z,13.00
2022-12-18T02:25:19.341Z,11.98
2022-12-18T02:27:54.052Z,11.02
2022-12-18T02:30:27.203Z,11.32
2022-12-18T02:32:56.812Z,10.82
2022-12-18T02:35:29.978Z,11.32
2022-12-18T02:38:04.016Z,11.45
2022-12-18T02:40:39.460Z,11.75
2022-12-18T02:43:17.173Z,11.25
2022-12-18T02:45:56.855Z,9.88
2022-12-18T02:48:35.983Z,10.77
2022-12-18T02:51:16.341Z,12.45
2022-12-18T02:54:19.744Z,12.02
2022-12-18T02:56:54.888Z,10.85
2022-12-18T02:59:33.625Z,10.02
2022-12-18T03:02:07.205Z,9.80
2022-12-18T03:04:48.268Z,10.95
2022-12-18T03:07:24.358Z,10.95
2022-12-18T03:09:56.322Z,10.13
2022-12-18T03:12:38.782Z,11.43
2022-12-18T03:15:17.633Z,10.88
2022-12-18T03:17:53.048Z,11.88
2022-12-18T03:20:25.570Z,10.90
2022-12-18T03:23:03.754Z,11.35
2022-12-18T03:25:33.541Z,10.25
2022-12-18T03:28:07.341Z,10.80
2022-12-18T03:30:40.487Z,9.52
2022-12-18T03:33:24.986Z,10.80
2022-12-18T03:35:54.649Z,9.82
2022-12-18T03:38:22.351Z,12.48
2022-12-18T03:40:59.513Z,11.38
2022-12-18T03:46:08.753Z,9.02
2022-12-18T03:48:43.340Z,10.13
2022-12-18T03:51:21.244Z,9.18
2022-12-18T03:54:05.998Z,9.80
2022-12-18T03:56:46.295Z,10.48
2022-12-18T03:59:16.386Z,11.60
2022-12-18T04:01:50.101Z,10.05
2022-12-18T04:04:27.959Z,9.30
2022-12-18T04:06:56.732Z,10.85
2022-12-18T04:09:26.032Z,9.75
2022-12-18T04:11:54.095Z,11.00
2022-12-18T04:14:21.547Z,10.68
2022-12-18T04:16:55.241Z,9.38
2022-12-18T04:19:28.622Z,10.25
2022-12-18T04:21:56.297Z,10.23
2022-12-18T04:24:23.721Z,9.90
2022-12-18T04:27:05.042Z,9.60
2022-12-18T04:29:41.927Z,9.90
2022-12-18T04:32:13.682Z,8.60
2022-12-18T04:34:43.283Z,9.75
2022-12-18T04:37:10.480Z,8.55
2022-12-18T04:39:37.892Z,9.90
2022-12-18T04:42:10.724Z,10.38
2022-12-18T04:44:37.970Z,8.98
2022-12-18T04:47:05.279Z,8.70
2022-12-18T04:49:32.583Z,9.88
2022-12-18T04:52:03.011Z,9.13
2022-12-18T04:54:30.466Z,9.10
2022-12-18T04:56:57.694Z,8.93
2022-12-18T04:59:24.996Z,9.82
2022-12-18T05:01:54.689Z,9.27
2022-12-18T05:04:24.098Z,9.25
2022-12-18T05:06:51.201Z,9.93
2022-12-18T05:09:18.688Z,7.85
2022-12-18T05:11:51.402Z,8.68
2022-12-18T05:14:21.025Z,8.73
2022-12-18T05:16:48.281Z,9.35
2022-12-18T05:19:17.879Z,9.25
2022-12-18T05:21:45.037Z,9.13
2022-12-18T05:24:17.946Z,9.60
2022-12-18T05:26:47.478Z,9.20
2022-12-18T05:29:15.010Z,7.82
2022-12-18T05:31:44.438Z,8.85
2022-12-18T05:34:12.044Z,8.60
2022-12-18T05:36:42.574Z,9.95
2022-12-18T05:39:10.435Z,9.13
2022-12-18T05:41:39.940Z,8.15
2022-12-18T05:44:09.108Z,7.75
2022-12-18T05:46:38.885Z,9.07
2022-12-18T05:49:08.298Z,10.40
2022-12-18T05:51:35.477Z,9.23
2022-12-18T05:54:02.895Z,10.23
2022-12-18T05:56:30.462Z,10.10
2022-12-18T05:58:57.771Z,8.98
2022-12-18T06:01:27.802Z,8.98
2022-12-18T06:03:56.247Z,8.05
2022-12-18T06:06:27.992Z,9.02
2022-12-18T06:08:56.304Z,8.50
2022-12-18T06:11:26.415Z,9.38
2022-12-18T06:13:58.687Z,8.82
2022-12-18T06:16:32.069Z,9.55
2022-12-18T06:19:01.000Z,8.52
2022-12-18T06:21:32.844Z,8.38
2022-12-18T06:24:01.671Z,9.73
2022-12-18T06:26:31.052Z,8.40
2022-12-18T06:29:00.754Z,8.45
2022-12-18T06:31:28.143Z,8.77
2022-12-18T06:33:59.453Z,8.73
2022-12-18T06:36:26.535Z,8.88
2022-12-18T06:38:53.724Z,8.30
2022-12-18T06:41:22.396Z,7.78
2022-12-18T06:43:59.353Z,8.02
2022-12-18T06:46:27.405Z,7.63
2022-12-18T06:48:56.964Z,7.18
2022-12-18T06:51:25.601Z,7.97
2022-12-18T06:53:55.499Z,8.57
2022-12-18T06:56:24.844Z,8.13
2022-12-18T06:58:54.856Z,7.22
2022-12-18T07:01:25.057Z,8.10
2022-12-18T07:03:55.448Z,7.60
2022-12-18T07:06:26.317Z,7.47
2022-12-18T07:08:56.351Z,7.70
2022-12-18T07:11:23.907Z,8.27
2022-12-18T07:13:51.108Z,9.32
2022-12-18T07:16:25.201Z,14.90
2022-12-18T07:18:55.845Z,13.38
2022-12-18T07:21:28.236Z,14.25
2022-12-18T07:23:56.971Z,18.58
2022-12-18T07:26:27.420Z,17.33
2022-12-18T07:28:58.691Z,17.15
2022-12-18T07:31:26.962Z,18.15
2022-12-18T07:33:56.881Z,22.48
2022-12-18T07:36:28.845Z,18.80
2022-12-18T07:39:01.520Z,22.30
2022-12-18T07:41:31.281Z,18.45
2022-12-18T07:44:15.295Z,19.30
2022-12-18T07:49:26.141Z,17.95
2022-12-18T07:51:57.033Z,20.25
2022-12-18T07:54:25.435Z,21.92
2022-12-18T07:56:55.341Z,21.83
2022-12-18T07:59:22.492Z,17.75
2022-12-18T08:01:49.926Z,19.38
2022-12-18T08:04:19.705Z,16.92
2022-12-18T08:06:48.297Z,17.13
2022-12-18T08:09:18.303Z,20.23
2022-12-18T08:11:45.610Z,17.48
2022-12-18T08:14:15.753Z,15.55
2022-12-18T08:16:43.120Z,19.50
2022-12-18T08:19:11.382Z,19.80
2022-12-18T08:21:44.967Z,17.33
2022-12-18T08:24:12.190Z,17.05
2022-12-18T08:26:41.517Z,14.68
2022-12-18T08:29:09.802Z,14.30
2022-12-18T08:31:37.245Z,15.13
2022-12-18T08:34:04.435Z,14.93
2022-12-18T08:36:31.689Z,13.48
2022-12-18T08:39:01.158Z,16.17
2022-12-18T08:41:31.391Z,16.30
2022-12-18T08:44:18.471Z,13.07
2022-12-18T08:46:47.991Z,15.75
2022-12-18T08:49:17.276Z,13.35
2022-12-18T08:51:44.620Z,13.45
2022-12-18T08:54:14.573Z,12.63
2022-12-18T08:56:41.760Z,16.42
2022-12-18T08:59:13.168Z,13.55
2022-12-18T09:01:47.916Z,11.35
2022-12-18T09:04:17.629Z,13.02
2022-12-18T09:06:46.868Z,15.48
2022-12-18T09:09:14.516Z,12.80
2022-12-18T09:11:41.711Z,13.90
2022-12-18T09:14:10.435Z,13.27
2022-12-18T09:16:40.095Z,13.98
2022-12-18T09:19:11.162Z,12.35
2022-12-18T09:21:44.819Z,13.90
2022-12-18T09:24:18.687Z,11.10
2022-12-18T09:26:47.603Z,11.88
2022-12-18T09:29:19.227Z,13.40
2022-12-18T09:31:47.563Z,12.57
2022-12-18T09:34:14.892Z,12.75
2022-12-18T09:36:44.275Z,12.43
2022-12-18T09:39:11.564Z,12.43
2022-12-18T09:41:54.539Z,11.00
2022-12-18T09:44:24.670Z,13.27
2022-12-18T09:47:04.335Z,12.35
2022-12-18T09:49:36.032Z,11.15
2022-12-18T09:52:10.384Z,11.15
2022-12-18T09:54:44.539Z,11.93
2022-12-18T09:57:16.459Z,11.85
2022-12-18T09:59:54.056Z,11.43
2022-12-18T10:02:24.601Z,11.05
2022-12-18T10:05:15.202Z,11.15
2022-12-18T10:08:00.535Z,12.73
2022-12-18T10:10:58.582Z,12.80
2022-12-18T10:13:34.852Z,11.82
2022-12-18T10:16:14.185Z,12.85
2022-12-18T10:19:05.791Z,10.00
2022-12-18T10:21:35.636Z,12.38
2022-12-18T10:24:16.021Z,10.68
2022-12-18T10:26:46.063Z,10.20
2022-12-18T10:29:15.218Z,11.13
2022-12-18T10:31:44.926Z,10.75
2022-12-18T10:34:13.201Z,11.98
2022-12-18T10:36:44.118Z,12.15
2022-12-18T10:39:28.341Z,12.30
2022-12-18T10:42:14.143Z,13.15
2022-12-18T10:44:43.376Z,9.82
2022-12-18T10:47:18.905Z,12.40
2022-12-18T10:49:54.062Z,12.55
2022-12-18T10:52:25.082Z,14.00
2022-12-18T10:55:00.432Z,13.30
2022-12-18T10:57:41.838Z,10.40
2022-12-18T11:00:29.165Z,10.02
2022-12-18T11:02:57.503Z,11.48
2022-12-18T11:05:37.724Z,10.27
2022-12-18T11:08:06.310Z,9.77
2022-12-18T11:10:38.768Z,9.93
2022-12-18T11:13:27.524Z,13.07
2022-12-18T11:15:55.008Z,8.05
2022-12-18T11:18:33.338Z,10.02
2022-12-18T11:21:06.534Z,11.23
2022-12-18T11:23:37.212Z,8.90
2022-12-18T11:26:06.960Z,11.45
2022-12-18T11:28:50.671Z,9.85
2022-12-18T11:31:26.787Z,8.93
2022-12-18T11:38:27.217Z,8.00
2022-12-18T11:41:07.423Z,9.70
2022-12-18T11:43:51.140Z,9.85
2022-12-18T11:46:34.921Z,10.68
2022-12-18T11:49:28.975Z,9.30
2022-12-18T11:52:41.582Z,9.05
2022-12-18T11:55:13.274Z,9.27
2022-12-18T11:57:53.264Z,9.88
2022-12-18T12:00:24.302Z,9.95
2022-12-18T12:03:12.444Z,9.82
2022-12-18T12:06:26.742Z,9.43
2022-12-18T12:09:01.379Z,8.63
2022-12-18T12:11:43.310Z,8.07
2022-12-18T12:14:17.186Z,9.65
2022-12-18T12:17:06.618Z,7.88
2022-12-18T12:19:51.893Z,8.23
2022-12-18T12:22:34.360Z,8.30
2022-12-18T12:25:40.558Z,9.00
2022-12-18T12:28:26.365Z,8.40
2022-12-18T12:31:18.032Z,8.90
2022-12-18T12:33:58.562Z,9.18
2022-12-18T12:36:44.189Z,7.43
2022-12-18T12:39:24.885Z,8.52
2022-12-18T12:42:11.342Z,8.13
2022-12-18T12:44:56.391Z,10.65
2022-12-18T12:47:29.429Z,8.18
2022-12-18T12:49:59.585Z,7.10
2022-12-18T12:52:29.806Z,7.82
2022-12-18T12:55:03.060Z,8.32
2022-12-18T12:57:43.948Z,7.97
2022-12-18T13:00:18.745Z,7.82
2022-12-18T13:03:02.836Z,9.07
2022-12-18T13:05:37.364Z,8.13
2022-12-18T13:08:13.952Z,6.97
2022-12-18T13:10:43.859Z,7.93
2022-12-18T13:13:13.392Z,8.77
2022-12-18T13:15:50.099Z,7.00
2022-12-18T13:18:25.397Z,8.13
2022-12-18T13:21:12.311Z,8.73
2022-12-18T13:23:42.501Z,8.70
2022-12-18T13:26:24.740Z,7.30
2022-12-18T13:28:59.181Z,8.32
2022-12-18T13:31:41.981Z,7.00
2022-12-18T13:34:26.173Z,7.07
2022-12-18T13:36:56.902Z,7.00
2022-12-18T13:39:34.841Z,7.70
2022-12-18T13:42:05.704Z,7.22
2022-12-18T13:44:40.553Z,7.40
2022-12-18T13:47:38.956Z,7.93
2022-12-18T13:50:36.419Z,8.02
2022-12-18T13:53:06.395Z,7.43
2022-12-18T13:55:34.609Z,6.97
2022-12-18T13:58:08.061Z,8.52
2022-12-18T14:03:27.597Z,7.70
2022-12-18T14:06:01.874Z,8.20
2022-12-18T14:08:35.866Z,7.70
2022-12-18T14:11:08.314Z,6.88
2022-12-18T14:13:42.850Z,6.90
2022-12-18T14:16:15.428Z,6.78
2022-12-18T14:18:49.586Z,7.05
2022-12-18T14:21:28.769Z,7.88
2022-12-18T14:24:08.018Z,7.47
2022-12-18T14:26:35.458Z,7.68
2022-12-18T14:29:29.486Z,6.45
2022-12-18T14:32:13.333Z,7.75
2022-12-18T14:34:51.291Z,6.97
2022-12-18T14:37:25.930Z,7.05
2022-12-18T14:40:07.173Z,7.68
2022-12-18T14:42:39.781Z,8.30
2022-12-18T14:45:42.391Z,6.93
2022-12-18T14:48:35.520Z,7.10
2022-12-18T14:51:16.717Z,7.18
2022-12-18T14:53:55.097Z,6.97
2022-12-18T14:56:24.457Z,7.00
2022-12-18T14:58:58.413Z,6.85
2022-12-18T15:02:08.920Z,7.70
2022-12-18T15:04:42.069Z,6.15
2022-12-18T15:10:03.555Z,6.82
2022-12-18T15:12:39.157Z,7.72
2022-12-18T15:15:33.863Z,6.30
2022-12-18T15:18:04.154Z,6.85
2022-12-18T15:20:35.702Z,7.60
2022-12-18T15:23:05.131Z,7.38
2022-12-18T15:25:38.191Z,7.45
2022-12-18T15:28:45.102Z,5.97
2022-12-18T15:31:15.933Z,6.75
2022-12-18T15:33:53.990Z,6.80
2022-12-18T15:36:26.751Z,6.70
2022-12-18T15:39:02.229Z,7.25
2022-12-18T15:41:37.885Z,7.00
2022-12-18T15:44:27.956Z,6.82
2022-12-18T15:46:58.271Z,7.32
2022-12-18T15:49:28.083Z,6.00
2022-12-18T15:52:00.736Z,6.97
2022-12-18T15:55:03.392Z,8.05
2022-12-18T15:57:33.817Z,6.85
2022-12-18T16:00:01.201Z,6.80
2022-12-18T16:02:30.731Z,7.28
2022-12-18T16:04:58.128Z,7.72
2022-12-18T16:07:28.131Z,8.95
2022-12-18T16:10:02.251Z,9.55
2022-12-18T16:12:30.123Z,7.88
2022-12-18T16:14:59.534Z,10.38
2022-12-18T16:17:31.547Z,8.80
2022-12-18T16:20:02.654Z,20.87
2022-12-18T16:22:32.036Z,9.55
2022-12-18T16:25:03.800Z,9.43
2022-12-18T16:27:33.524Z,12.80
2022-12-18T16:30:00.785Z,13.82
2022-12-18T16:32:30.636Z,8.60
2022-12-18T16:35:01.175Z,12.98
2022-12-18T16:37:28.360Z,12.13
2022-12-18T16:39:56.083Z,12.15
2022-12-18T16:42:23.349Z,12.05
2022-12-18T16:44:56.253Z,14.77
2022-12-18T16:47:25.654Z,15.20
2022-12-18T16:49:57.524Z,13.45
2022-12-18T16:52:24.780Z,13.70
2022-12-18T16:54:52.232Z,14.20
2022-12-18T16:57:28.168Z,13.82
2022-12-18T16:59:59.907Z,14.93
2022-12-18T17:02:32.869Z,13.40
2022-12-18T17:05:05.012Z,12.55
2022-12-18T17:07:34.627Z,16.50
2022-12-18T17:10:03.467Z,12.23
2022-12-18T17:12:31.935Z,11.02
2022-12-18T17:15:02.423Z,16.77
2022-12-18T17:17:29.737Z,12.55
2022-12-18T17:20:01.386Z,17.17
2022-12-18T17:22:28.761Z,14.25
2022-12-18T17:24:56.328Z,15.43
2022-12-18T17:27:23.462Z,20.17
2022-12-18T17:29:50.782Z,17.13
2022-12-18T17:32:20.457Z,17.63
2022-12-18T17:34:50.087Z,19.48
2022-12-18T17:37:19.608Z,20.73
2022-12-18T17:39:46.888Z,23.65
2022-12-18T17:42:17.784Z,21.65
2022-12-18T17:44:47.196Z,21.77
2022-12-18T17:47:14.727Z,21.75
2022-12-18T17:49:46.700Z,23.25
2022-12-18T17:52:14.082Z,18.35
2022-12-18T17:54:42.285Z,18.10
2022-12-18T17:57:12.256Z,18.42
2022-12-18T17:59:39.495Z,17.55
2022-12-18T18:02:09.407Z,17.55
2022-12-18T18:04:41.768Z,13.43
2022-12-18T18:07:11.218Z,16.73
2022-12-18T18:09:38.795Z,14.10
2022-12-18T18:12:28.569Z,14.07
2022-12-18T18:14:58.829Z,12.07
2022-12-18T18:17:26.648Z,19.13
2022-12-18T18:19:54.014Z,11.02
2022-12-18T18:22:25.342Z,12.13
2022-12-18T18:27:38.423Z,10.45
2022-12-18T18:30:07.851Z,11.13
2022-12-18T18:32:39.583Z,14.93
2022-12-18T18:35:12.553Z,10.93
2022-12-18T18:37:52.556Z,12.85
2022-12-18T18:40:23.341Z,11.13
2022-12-18T18:42:55.937Z,11.32
2022-12-18T18:45:25.920Z,12.93
2022-12-18T18:47:55.516Z,10.93
2022-12-18T18:50:22.886Z,9.93
2022-12-18T18:52:50.087Z,15.95
2022-12-18T18:55:25.302Z,10.57
2022-12-18T18:57:55.389Z,10.73
2022-12-18T19:00:22.705Z,12.43
2022-12-18T19:02:50.537Z,12.13
2022-12-18T19:05:18.059Z,12.32
2022-12-18T19:07:45.186Z,12.07
2022-12-18T19:10:15.575Z,12.50
2022-12-18T19:13:01.481Z,9.52
2022-12-18T19:15:28.690Z,9.02
2022-12-18T19:17:58.504Z,9.95
2022-12-18T19:20:25.965Z,13.05
2022-12-18T19:22:56.611Z,9.98
2022-12-18T19:25:29.949Z,9.57
2022-12-18T19:28:21.524Z,8.48
2022-12-18T19:30:51.443Z,9.57
2022-12-18T19:33:44.368Z,9.98
2022-12-18T19:36:29.993Z,12.50
2022-12-18T19:39:01.449Z,11.20
2022-12-18T19:41:33.976Z,10.23
2022-12-18T19:44:07.600Z,10.38
2022-12-18T19:46:36.332Z,9.07
2022-12-18T19:49:11.118Z,9.23
2022-12-18T19:51:39.156Z,9.32
2022-12-18T19:54:13.281Z,9.85
2022-12-18T19:56:45.003Z,8.90
2022-12-18T19:59:15.046Z,9.27
2022-12-18T20:01:44.587Z,8.07
2022-12-18T20:04:12.087Z,9.50
2022-12-18T20:06:48.053Z,8.30
2022-12-18T20:09:15.804Z,8.40
2022-12-18T20:11:43.986Z,7.70
2022-12-18T20:14:13.761Z,8.65
2022-12-18T20:16:41.843Z,8.45
2022-12-18T20:19:12.178Z,7.90
2022-12-18T20:21:39.866Z,7.43
2022-12-18T20:24:10.341Z,7.47
2022-12-18T20:26:40.658Z,7.75
2022-12-18T20:29:08.095Z,7.60
2022-12-18T20:31:37.718Z,10.00
2022-12-18T20:34:06.155Z,7.65
2022-12-18T20:36:36.302Z,7.43
2022-12-18T20:39:12.137Z,9.13
2022-12-18T20:41:42.100Z,9.73
2022-12-18T20:44:22.893Z,11.45
2022-12-18T20:46:54.269Z,11.48
2022-12-18T20:49:25.498Z,12.83
2022-12-18T20:51:57.230Z,15.45
2022-12-18T20:54:26.852Z,18.40
2022-12-18T20:56:54.450Z,17.30
2022-12-18T20:59:25.661Z,19.92
2022-12-18T21:01:55.538Z,20.30
2022-12-18T21:04:23.551Z,17.10
2022-12-18T21:06:56.800Z,21.33
2022-12-18T21:09:34.242Z,21.38
2022-12-18T21:12:33.449Z,21.33
2022-12-18T21:15:09.861Z,19.77
2022-12-18T21:17:41.118Z,19.45
2022-12-18T21:20:17.299Z,17.90
2022-12-18T21:22:49.273Z,16.20
2022-12-18T21:25:16.880Z,20.38
2022-12-18T21:27:44.311Z,21.15
2022-12-18T21:30:12.270Z,18.48
2022-12-18T21:32:39.899Z,21.23
2022-12-18T21:35:07.460Z,19.33
2022-12-18T21:37:36.806Z,18.25
2022-12-18T21:40:06.011Z,20.20
2022-12-18T21:42:54.417Z,20.90
2022-12-18T21:45:22.281Z,21.60
2022-12-18T21:47:50.846Z,19.50
2022-12-18T21:50:18.088Z,18.85
2022-12-18T21:52:46.473Z,19.00
2022-12-18T21:55:20.781Z,19.30
2022-12-18T21:57:48.177Z,17.55
2022-12-18T22:00:19.663Z,22.10
2022-12-18T22:02:59.922Z,18.92
2022-12-18T22:05:36.795Z,20.25
2022-12-18T22:08:07.432Z,19.88
2022-12-18T22:10:38.311Z,19.08
2022-12-18T22:13:07.324Z,18.88
2022-12-18T22:15:34.668Z,21.60
2022-12-18T22:18:04.904Z,19.25
2022-12-18T22:20:32.418Z,19.90
2022-12-18T22:23:02.878Z,17.95
2022-12-18T22:25:35.999Z,16.67
2022-12-18T22:28:26.784Z,16.77
2022-12-18T22:30:59.058Z,15.25
2022-12-18T22:33:27.033Z,16.60
2022-12-18T22:35:56.647Z,15.93
2022-12-18T22:38:23.790Z,17.50
2022-12-18T22:40:51.359Z,17.20
2022-12-18T22:43:20.876Z,15.75
2022-12-18T22:45:50.647Z,16.42
2022-12-18T22:48:20.348Z,18.53
2022-12-18T22:50:47.520Z,15.60
2022-12-18T22:53:16.356Z,15.93
2022-12-18T22:55:44.747Z,15.45
2022-12-18T22:58:11.935Z,13.40
2022-12-18T23:00:41.347Z,16.40
2022-12-18T23:03:09.752Z,15.10
2022-12-18T23:05:39.380Z,17.77
2022-12-18T23:08:06.526Z,15.32
2022-12-18T23:10:37.698Z,14.02
2022-12-18T23:13:04.883Z,15.95
2022-12-18T23:15:32.258Z,16.83
2022-12-18T23:18:04.500Z,17.98
2022-12-18T23:20:31.765Z,17.08
2022-12-18T23:23:01.178Z,13.10
2022-12-18T23:25:28.433Z,13.07
2022-12-18T23:27:55.549Z,12.27
2022-12-18T23:30:24.978Z,17.13
2022-12-18T23:32:57.365Z,13.68
2022-12-18T23:35:26.968Z,12.75
2022-12-18T23:37:59.415Z,14.10
2022-12-18T23:40:30.213Z,13.20
2022-12-18T23:43:00.374Z,14.65
2022-12-18T23:45:29.826Z,13.75
2022-12-18T23:47:57.383Z,12.82
2022-12-18T23:50:30.289Z,15.23
2022-12-18T23:53:04.677Z,12.65
2022-12-18T23:55:38.494Z,11.95
2022-12-18T23:58:08.195Z,13.13
